Terminal Aerodrome Forecast
Issued by NWS

Home | Current Version | Previous Version | Text Only | Print | Product List | Glossary On
Versions: 1 2 3 4 5 6 7 8 9 10 11 12 13 14
000
FTUS41 KBOX 250537
TAFHYA
TAF
KHYA 250537Z 2506/2606 22005KT P6SM FEW200
     FM251600 21009KT P6SM SCT150
     FM260000 21009KT P6SM BKN003
     FM260200 22008KT 5SM BR VCSH BKN003=

USA.gov is the U.S. government's official web portal to all federal, state and local government web resources and services.